sensor_id;sensor_type;location;lat;lon;timestamp;P1;durP1;ratioP1;P2;durP2;ratioP2
51090;SDS011;37136;43.614;3.908;2022-10-16T00:00:37;10.25;;;6.65;;
51090;SDS011;37136;43.614;3.908;2022-10-16T00:03:04;13.23;;;6.40;;
51090;SDS011;37136;43.614;3.908;2022-10-16T00:05:31;16.15;;;7.55;;
51090;SDS011;37136;43.614;3.908;2022-10-16T00:07:56;16.38;;;7.63;;
51090;SDS011;37136;43.614;3.908;2022-10-16T00:10:22;13.43;;;7.32;;
51090;SDS011;37136;43.614;3.908;2022-10-16T00:12:49;17.48;;;7.88;;
51090;SDS011;37136;43.614;3.908;2022-10-16T00:15:15;13.63;;;7.53;;
51090;SDS011;37136;43.614;3.908;2022-10-16T00:17:41;12.50;;;8.02;;
51090;SDS011;37136;43.614;3.908;2022-10-16T00:20:07;8.65;;;6.97;;
51090;SDS011;37136;43.614;3.908;2022-10-16T00:22:33;14.32;;;7.68;;
51090;SDS011;37136;43.614;3.908;2022-10-16T00:24:58;11.52;;;8.07;;
51090;SDS011;37136;43.614;3.908;2022-10-16T00:27:24;15.57;;;7.88;;
51090;SDS011;37136;43.614;3.908;2022-10-16T00:29:50;9.93;;;6.57;;
51090;SDS011;37136;43.614;3.908;2022-10-16T00:32:17;15.32;;;8.30;;
51090;SDS011;37136;43.614;3.908;2022-10-16T00:34:44;10.98;;;7.53;;
51090;SDS011;37136;43.614;3.908;2022-10-16T00:37:10;11.45;;;7.32;;
51090;SDS011;37136;43.614;3.908;2022-10-16T00:39:36;11.93;;;6.78;;
51090;SDS011;37136;43.614;3.908;2022-10-16T00:42:02;14.18;;;7.65;;
51090;SDS011;37136;43.614;3.908;2022-10-16T00:49:51;15.65;;;7.18;;
51090;SDS011;37136;43.614;3.908;2022-10-16T00:52:22;12.93;;;7.38;;
51090;SDS011;37136;43.614;3.908;2022-10-16T00:54:49;13.43;;;7.70;;
51090;SDS011;37136;43.614;3.908;2022-10-16T00:57:17;11.38;;;7.60;;
51090;SDS011;37136;43.614;3.908;2022-10-16T00:59:43;17.83;;;8.00;;
51090;SDS011;37136;43.614;3.908;2022-10-16T01:02:11;10.55;;;7.47;;
51090;SDS011;37136;43.614;3.908;2022-10-16T01:04:40;11.80;;;8.30;;
51090;SDS011;37136;43.614;3.908;2022-10-16T01:13:21;16.75;;;7.80;;
51090;SDS011;37136;43.614;3.908;2022-10-16T01:23:27;12.55;;;7.55;;
51090;SDS011;37136;43.614;3.908;2022-10-16T01:28:55;12.13;;;7.72;;
51090;SDS011;37136;43.614;3.908;2022-10-16T01:31:29;15.80;;;8.32;;
51090;SDS011;37136;43.614;3.908;2022-10-16T01:34:02;10.50;;;7.32;;
51090;SDS011;37136;43.614;3.908;2022-10-16T01:36:35;14.00;;;8.43;;
51090;SDS011;37136;43.614;3.908;2022-10-16T01:39:05;14.90;;;8.48;;
51090;SDS011;37136;43.614;3.908;2022-10-16T01:41:36;15.50;;;9.02;;
51090;SDS011;37136;43.614;3.908;2022-10-16T01:44:07;11.52;;;8.18;;
51090;SDS011;37136;43.614;3.908;2022-10-16T01:46:39;13.65;;;8.55;;
51090;SDS011;37136;43.614;3.908;2022-10-16T01:49:08;21.58;;;10.32;;
51090;SDS011;37136;43.614;3.908;2022-10-16T01:51:35;19.67;;;10.25;;
51090;SDS011;37136;43.614;3.908;2022-10-16T01:54:03;20.23;;;9.15;;
51090;SDS011;37136;43.614;3.908;2022-10-16T01:56:32;17.80;;;10.00;;
51090;SDS011;37136;43.614;3.908;2022-10-16T01:59:07;14.30;;;10.38;;
51090;SDS011;37136;43.614;3.908;2022-10-16T02:01:36;16.17;;;10.27;;
51090;SDS011;37136;43.614;3.908;2022-10-16T02:04:11;21.25;;;10.40;;
51090;SDS011;37136;43.614;3.908;2022-10-16T02:06:58;23.23;;;11.05;;
51090;SDS011;37136;43.614;3.908;2022-10-16T02:09:24;16.80;;;10.85;;
51090;SDS011;37136;43.614;3.908;2022-10-16T02:11:52;21.80;;;10.63;;
51090;SDS011;37136;43.614;3.908;2022-10-16T02:14:21;19.92;;;11.25;;
51090;SDS011;37136;43.614;3.908;2022-10-16T02:16:49;17.50;;;10.93;;
51090;SDS011;37136;43.614;3.908;2022-10-16T02:19:16;16.48;;;10.45;;
51090;SDS011;37136;43.614;3.908;2022-10-16T02:21:58;19.38;;;10.05;;
51090;SDS011;37136;43.614;3.908;2022-10-16T02:25:13;16.25;;;11.23;;
51090;SDS011;37136;43.614;3.908;2022-10-16T02:27:41;19.20;;;9.93;;
51090;SDS011;37136;43.614;3.908;2022-10-16T02:33:15;19.98;;;11.52;;
51090;SDS011;37136;43.614;3.908;2022-10-16T02:35:43;21.17;;;10.90;;
51090;SDS011;37136;43.614;3.908;2022-10-16T02:38:11;25.48;;;11.25;;
51090;SDS011;37136;43.614;3.908;2022-10-16T02:40:39;18.60;;;11.05;;
51090;SDS011;37136;43.614;3.908;2022-10-16T02:43:06;19.02;;;11.40;;
51090;SDS011;37136;43.614;3.908;2022-10-16T02:45:32;23.02;;;11.63;;
51090;SDS011;37136;43.614;3.908;2022-10-16T02:47:58;18.30;;;11.57;;
51090;SDS011;37136;43.614;3.908;2022-10-16T02:50:24;18.33;;;11.65;;
51090;SDS011;37136;43.614;3.908;2022-10-16T02:52:50;19.73;;;12.68;;
51090;SDS011;37136;43.614;3.908;2022-10-16T02:55:16;25.42;;;12.48;;
51090;SDS011;37136;43.614;3.908;2022-10-16T02:57:42;23.27;;;12.38;;
51090;SDS011;37136;43.614;3.908;2022-10-16T03:00:09;22.55;;;11.88;;
51090;SDS011;37136;43.614;3.908;2022-10-16T03:02:37;25.33;;;12.98;;
51090;SDS011;37136;43.614;3.908;2022-10-16T03:05:02;23.30;;;12.18;;
51090;SDS011;37136;43.614;3.908;2022-10-16T03:07:29;23.85;;;12.05;;
51090;SDS011;37136;43.614;3.908;2022-10-16T03:09:55;21.13;;;12.73;;
51090;SDS011;37136;43.614;3.908;2022-10-16T03:12:21;21.15;;;11.82;;
51090;SDS011;37136;43.614;3.908;2022-10-16T03:14:47;20.98;;;11.45;;
51090;SDS011;37136;43.614;3.908;2022-10-16T03:17:13;16.10;;;11.65;;
51090;SDS011;37136;43.614;3.908;2022-10-16T03:19:41;21.55;;;11.27;;
51090;SDS011;37136;43.614;3.908;2022-10-16T03:22:07;21.05;;;11.68;;
51090;SDS011;37136;43.614;3.908;2022-10-16T03:24:33;21.90;;;11.45;;
51090;SDS011;37136;43.614;3.908;2022-10-16T03:26:59;24.73;;;12.18;;
51090;SDS011;37136;43.614;3.908;2022-10-16T03:29:25;24.00;;;11.82;;
51090;SDS011;37136;43.614;3.908;2022-10-16T03:31:52;16.83;;;11.35;;
51090;SDS011;37136;43.614;3.908;2022-10-16T03:34:18;23.25;;;11.93;;
51090;SDS011;37136;43.614;3.908;2022-10-16T03:36:44;23.83;;;10.80;;
51090;SDS011;37136;43.614;3.908;2022-10-16T03:39:09;21.90;;;11.50;;
51090;SDS011;37136;43.614;3.908;2022-10-16T03:41:35;21.45;;;11.10;;
51090;SDS011;37136;43.614;3.908;2022-10-16T03:44:01;19.92;;;11.13;;
51090;SDS011;37136;43.614;3.908;2022-10-16T03:46:27;21.15;;;11.10;;
51090;SDS011;37136;43.614;3.908;2022-10-16T03:48:52;21.42;;;10.90;;
51090;SDS011;37136;43.614;3.908;2022-10-16T03:51:18;20.00;;;10.60;;
51090;SDS011;37136;43.614;3.908;2022-10-16T03:53:44;19.92;;;11.30;;
51090;SDS011;37136;43.614;3.908;2022-10-16T03:56:09;19.85;;;10.23;;
51090;SDS011;37136;43.614;3.908;2022-10-16T03:58:35;17.90;;;9.68;;
51090;SDS011;37136;43.614;3.908;2022-10-16T04:01:01;24.27;;;10.52;;
51090;SDS011;37136;43.614;3.908;2022-10-16T04:03:27;14.57;;;9.45;;
51090;SDS011;37136;43.614;3.908;2022-10-16T04:05:52;18.83;;;10.00;;
51090;SDS011;37136;43.614;3.908;2022-10-16T04:08:18;17.98;;;10.48;;
51090;SDS011;37136;43.614;3.908;2022-10-16T04:10:44;24.80;;;10.57;;
51090;SDS011;37136;43.614;3.908;2022-10-16T04:13:10;17.77;;;8.70;;
51090;SDS011;37136;43.614;3.908;2022-10-16T04:15:37;18.90;;;9.05;;
51090;SDS011;37136;43.614;3.908;2022-10-16T04:18:04;22.60;;;10.10;;
51090;SDS011;37136;43.614;3.908;2022-10-16T04:20:30;19.73;;;9.20;;
51090;SDS011;37136;43.614;3.908;2022-10-16T04:22:56;17.95;;;9.85;;
51090;SDS011;37136;43.614;3.908;2022-10-16T04:25:21;24.90;;;9.95;;
51090;SDS011;37136;43.614;3.908;2022-10-16T04:27:47;24.58;;;11.30;;
51090;SDS011;37136;43.614;3.908;2022-10-16T04:30:13;26.85;;;10.55;;
51090;SDS011;37136;43.614;3.908;2022-10-16T04:32:39;22.80;;;11.13;;
51090;SDS011;37136;43.614;3.908;2022-10-16T04:35:05;25.00;;;11.75;;
51090;SDS011;37136;43.614;3.908;2022-10-16T04:37:31;27.27;;;12.15;;
51090;SDS011;37136;43.614;3.908;2022-10-16T04:39:57;30.33;;;10.55;;
51090;SDS011;37136;43.614;3.908;2022-10-16T04:42:23;31.90;;;11.57;;
51090;SDS011;37136;43.614;3.908;2022-10-16T04:44:48;31.23;;;10.63;;
51090;SDS011;37136;43.614;3.908;2022-10-16T04:47:14;32.90;;;11.32;;
51090;SDS011;37136;43.614;3.908;2022-10-16T04:49:40;34.42;;;11.77;;
51090;SDS011;37136;43.614;3.908;2022-10-16T04:52:06;35.22;;;12.50;;
51090;SDS011;37136;43.614;3.908;2022-10-16T04:54:31;25.73;;;11.55;;
51090;SDS011;37136;43.614;3.908;2022-10-16T04:56:57;22.90;;;11.63;;
51090;SDS011;37136;43.614;3.908;2022-10-16T04:59:23;36.20;;;11.60;;
51090;SDS011;37136;43.614;3.908;2022-10-16T05:01:49;41.92;;;12.07;;
51090;SDS011;37136;43.614;3.908;2022-10-16T05:04:15;25.50;;;11.55;;
51090;SDS011;37136;43.614;3.908;2022-10-16T05:06:41;27.65;;;11.15;;
51090;SDS011;37136;43.614;3.908;2022-10-16T05:09:07;24.75;;;10.07;;
51090;SDS011;37136;43.614;3.908;2022-10-16T05:11:33;19.65;;;9.07;;
51090;SDS011;37136;43.614;3.908;2022-10-16T05:13:59;18.25;;;8.93;;
51090;SDS011;37136;43.614;3.908;2022-10-16T05:16:26;26.58;;;9.57;;
51090;SDS011;37136;43.614;3.908;2022-10-16T05:18:52;36.42;;;12.40;;
51090;SDS011;37136;43.614;3.908;2022-10-16T05:21:18;27.27;;;10.57;;
51090;SDS011;37136;43.614;3.908;2022-10-16T05:23:44;18.70;;;9.68;;
51090;SDS011;37136;43.614;3.908;2022-10-16T05:26:10;19.10;;;10.38;;
51090;SDS011;37136;43.614;3.908;2022-10-16T05:28:36;19.17;;;8.85;;
51090;SDS011;37136;43.614;3.908;2022-10-16T05:31:05;23.15;;;9.15;;
51090;SDS011;37136;43.614;3.908;2022-10-16T05:33:32;19.08;;;9.27;;
51090;SDS011;37136;43.614;3.908;2022-10-16T05:36:05;13.88;;;8.02;;
51090;SDS011;37136;43.614;3.908;2022-10-16T05:38:32;21.40;;;11.20;;
51090;SDS011;37136;43.614;3.908;2022-10-16T05:40:59;23.52;;;9.63;;
51090;SDS011;37136;43.614;3.908;2022-10-16T05:43:26;23.48;;;9.77;;
51090;SDS011;37136;43.614;3.908;2022-10-16T05:46:05;15.57;;;9.68;;
51090;SDS011;37136;43.614;3.908;2022-10-16T05:48:31;20.48;;;9.05;;
51090;SDS011;37136;43.614;3.908;2022-10-16T05:50:59;20.23;;;8.88;;
51090;SDS011;37136;43.614;3.908;2022-10-16T05:53:30;19.25;;;8.63;;
51090;SDS011;37136;43.614;3.908;2022-10-16T05:55:57;16.42;;;8.95;;
51090;SDS011;37136;43.614;3.908;2022-10-16T05:58:23;16.77;;;8.75;;
51090;SDS011;37136;43.614;3.908;2022-10-16T06:00:55;22.70;;;9.95;;
51090;SDS011;37136;43.614;3.908;2022-10-16T06:03:25;19.27;;;8.02;;
51090;SDS011;37136;43.614;3.908;2022-10-16T06:05:51;16.55;;;8.57;;
51090;SDS011;37136;43.614;3.908;2022-10-16T06:08:18;17.92;;;9.80;;
51090;SDS011;37136;43.614;3.908;2022-10-16T06:10:45;23.02;;;9.32;;
51090;SDS011;37136;43.614;3.908;2022-10-16T06:13:12;20.10;;;9.07;;
51090;SDS011;37136;43.614;3.908;2022-10-16T06:15:39;23.63;;;10.15;;
51090;SDS011;37136;43.614;3.908;2022-10-16T06:18:07;16.20;;;9.93;;
51090;SDS011;37136;43.614;3.908;2022-10-16T06:20:33;18.17;;;9.82;;
51090;SDS011;37136;43.614;3.908;2022-10-16T06:23:00;17.70;;;9.90;;
51090;SDS011;37136;43.614;3.908;2022-10-16T06:25:25;18.85;;;9.70;;
51090;SDS011;37136;43.614;3.908;2022-10-16T06:27:51;17.45;;;9.57;;
51090;SDS011;37136;43.614;3.908;2022-10-16T06:30:17;21.50;;;9.65;;
51090;SDS011;37136;43.614;3.908;2022-10-16T06:32:43;16.17;;;9.90;;
51090;SDS011;37136;43.614;3.908;2022-10-16T06:35:08;20.25;;;9.43;;
51090;SDS011;37136;43.614;3.908;2022-10-16T06:37:34;16.38;;;8.43;;
51090;SDS011;37136;43.614;3.908;2022-10-16T06:40:00;14.88;;;8.25;;
51090;SDS011;37136;43.614;3.908;2022-10-16T06:42:26;20.30;;;9.15;;
51090;SDS011;37136;43.614;3.908;2022-10-16T06:44:51;14.20;;;9.27;;
51090;SDS011;37136;43.614;3.908;2022-10-16T06:47:17;16.40;;;8.90;;
51090;SDS011;37136;43.614;3.908;2022-10-16T06:49:43;18.90;;;9.05;;
51090;SDS011;37136;43.614;3.908;2022-10-16T06:52:08;14.93;;;9.25;;
51090;SDS011;37136;43.614;3.908;2022-10-16T06:54:34;12.55;;;9.35;;
51090;SDS011;37136;43.614;3.908;2022-10-16T06:57:00;20.08;;;9.65;;
51090;SDS011;37136;43.614;3.908;2022-10-16T06:59:26;15.38;;;9.45;;
51090;SDS011;37136;43.614;3.908;2022-10-16T07:01:52;25.67;;;11.52;;
51090;SDS011;37136;43.614;3.908;2022-10-16T07:04:18;17.60;;;10.57;;
51090;SDS011;37136;43.614;3.908;2022-10-16T07:06:44;17.05;;;9.73;;
51090;SDS011;37136;43.614;3.908;2022-10-16T07:09:10;16.80;;;9.52;;
51090;SDS011;37136;43.614;3.908;2022-10-16T07:11:37;18.58;;;9.00;;
51090;SDS011;37136;43.614;3.908;2022-10-16T07:14:05;16.55;;;8.40;;
51090;SDS011;37136;43.614;3.908;2022-10-16T07:16:40;17.05;;;8.43;;
51090;SDS011;37136;43.614;3.908;2022-10-16T07:19:05;16.52;;;8.63;;
51090;SDS011;37136;43.614;3.908;2022-10-16T07:21:32;11.98;;;8.00;;
51090;SDS011;37136;43.614;3.908;2022-10-16T07:24:02;15.65;;;8.25;;
51090;SDS011;37136;43.614;3.908;2022-10-16T07:26:33;15.77;;;8.55;;
51090;SDS011;37136;43.614;3.908;2022-10-16T07:29:01;17.20;;;7.65;;
51090;SDS011;37136;43.614;3.908;2022-10-16T07:31:28;14.60;;;8.45;;
51090;SDS011;37136;43.614;3.908;2022-10-16T07:33:54;13.75;;;7.47;;
51090;SDS011;37136;43.614;3.908;2022-10-16T07:36:20;13.63;;;7.32;;
51090;SDS011;37136;43.614;3.908;2022-10-16T07:38:46;14.02;;;8.65;;
51090;SDS011;37136;43.614;3.908;2022-10-16T07:41:14;12.23;;;6.85;;
51090;SDS011;37136;43.614;3.908;2022-10-16T07:43:45;14.63;;;7.70;;
51090;SDS011;37136;43.614;3.908;2022-10-16T07:46:15;20.05;;;8.40;;
51090;SDS011;37136;43.614;3.908;2022-10-16T07:48:42;13.25;;;7.53;;
51090;SDS011;37136;43.614;3.908;2022-10-16T07:51:12;17.40;;;7.30;;
51090;SDS011;37136;43.614;3.908;2022-10-16T07:53:39;10.95;;;7.18;;
51090;SDS011;37136;43.614;3.908;2022-10-16T07:56:06;18.50;;;6.60;;
51090;SDS011;37136;43.614;3.908;2022-10-16T07:58:33;15.60;;;7.45;;
51090;SDS011;37136;43.614;3.908;2022-10-16T08:03:31;13.32;;;6.43;;
51090;SDS011;37136;43.614;3.908;2022-10-16T08:05:58;12.95;;;6.55;;
51090;SDS011;37136;43.614;3.908;2022-10-16T08:08:24;12.10;;;7.38;;
51090;SDS011;37136;43.614;3.908;2022-10-16T08:10:50;18.52;;;8.73;;
51090;SDS011;37136;43.614;3.908;2022-10-16T08:13:16;16.63;;;8.90;;
51090;SDS011;37136;43.614;3.908;2022-10-16T08:15:42;22.60;;;9.32;;
51090;SDS011;37136;43.614;3.908;2022-10-16T08:18:09;19.63;;;7.75;;
51090;SDS011;37136;43.614;3.908;2022-10-16T08:20:36;13.50;;;6.40;;
51090;SDS011;37136;43.614;3.908;2022-10-16T08:23:02;9.10;;;6.38;;
51090;SDS011;37136;43.614;3.908;2022-10-16T08:25:28;14.68;;;6.70;;
51090;SDS011;37136;43.614;3.908;2022-10-16T08:27:54;19.73;;;7.47;;
51090;SDS011;37136;43.614;3.908;2022-10-16T08:30:21;13.40;;;6.90;;
51090;SDS011;37136;43.614;3.908;2022-10-16T08:32:48;9.48;;;6.63;;
51090;SDS011;37136;43.614;3.908;2022-10-16T08:35:14;11.73;;;6.88;;
51090;SDS011;37136;43.614;3.908;2022-10-16T08:37:41;18.33;;;7.22;;
51090;SDS011;37136;43.614;3.908;2022-10-16T08:40:07;15.07;;;7.32;;
51090;SDS011;37136;43.614;3.908;2022-10-16T08:50:57;15.90;;;7.15;;
51090;SDS011;37136;43.614;3.908;2022-10-16T08:53:28;12.77;;;6.63;;
51090;SDS011;37136;43.614;3.908;2022-10-16T08:55:58;12.73;;;7.03;;
51090;SDS011;37136;43.614;3.908;2022-10-16T08:58:28;13.35;;;6.30;;
51090;SDS011;37136;43.614;3.908;2022-10-16T09:01:03;15.43;;;7.00;;
51090;SDS011;37136;43.614;3.908;2022-10-16T09:17:15;11.75;;;6.65;;
51090;SDS011;37136;43.614;3.908;2022-10-16T09:22:40;18.40;;;6.80;;
51090;SDS011;37136;43.614;3.908;2022-10-16T09:25:13;16.25;;;6.50;;
51090;SDS011;37136;43.614;3.908;2022-10-16T09:27:42;11.80;;;6.28;;
51090;SDS011;37136;43.614;3.908;2022-10-16T09:30:15;12.13;;;6.80;;
51090;SDS011;37136;43.614;3.908;2022-10-16T09:32:43;19.10;;;6.80;;
51090;SDS011;37136;43.614;3.908;2022-10-16T09:35:14;12.43;;;6.60;;
51090;SDS011;37136;43.614;3.908;2022-10-16T09:38:07;12.23;;;6.35;;
51090;SDS011;37136;43.614;3.908;2022-10-16T09:40:37;14.25;;;6.78;;
51090;SDS011;37136;43.614;3.908;2022-10-16T09:48:27;19.58;;;8.07;;
51090;SDS011;37136;43.614;3.908;2022-10-16T09:51:05;25.70;;;10.63;;
51090;SDS011;37136;43.614;3.908;2022-10-16T09:56:12;41.45;;;7.82;;
51090;SDS011;37136;43.614;3.908;2022-10-16T09:58:51;22.13;;;7.57;;
51090;SDS011;37136;43.614;3.908;2022-10-16T10:01:18;21.23;;;8.23;;
51090;SDS011;37136;43.614;3.908;2022-10-16T10:03:45;65.40;;;9.52;;
51090;SDS011;37136;43.614;3.908;2022-10-16T10:08:53;22.52;;;7.85;;
51090;SDS011;37136;43.614;3.908;2022-10-16T10:14:26;45.15;;;7.95;;
51090;SDS011;37136;43.614;3.908;2022-10-16T10:30:24;14.80;;;6.03;;
51090;SDS011;37136;43.614;3.908;2022-10-16T10:47:13;18.42;;;6.30;;
51090;SDS011;37136;43.614;3.908;2022-10-16T11:03:22;21.23;;;6.88;;
51090;SDS011;37136;43.614;3.908;2022-10-16T11:08:43;29.65;;;7.45;;
51090;SDS011;37136;43.614;3.908;2022-10-16T11:11:20;38.90;;;7.85;;
51090;SDS011;37136;43.614;3.908;2022-10-16T11:14:04;25.60;;;7.43;;
51090;SDS011;37136;43.614;3.908;2022-10-16T11:16:43;23.70;;;7.97;;
51090;SDS011;37136;43.614;3.908;2022-10-16T11:19:28;30.00;;;7.57;;
51090;SDS011;37136;43.614;3.908;2022-10-16T11:27:50;29.13;;;7.65;;
51090;SDS011;37136;43.614;3.908;2022-10-16T11:30:26;19.20;;;6.72;;
51090;SDS011;37136;43.614;3.908;2022-10-16T11:36:16;25.80;;;8.18;;
51090;SDS011;37136;43.614;3.908;2022-10-16T11:41:56;35.72;;;7.70;;
51090;SDS011;37136;43.614;3.908;2022-10-16T11:45:08;29.30;;;6.60;;
51090;SDS011;37136;43.614;3.908;2022-10-16T11:50:53;19.08;;;6.22;;
51090;SDS011;37136;43.614;3.908;2022-10-16T11:56:19;19.00;;;6.95;;
51090;SDS011;37136;43.614;3.908;2022-10-16T12:06:40;18.80;;;5.75;;
51090;SDS011;37136;43.614;3.908;2022-10-16T12:09:29;21.13;;;6.40;;
51090;SDS011;37136;43.614;3.908;2022-10-16T12:11:57;24.80;;;6.57;;
51090;SDS011;37136;43.614;3.908;2022-10-16T12:14:37;26.70;;;7.00;;
51090;SDS011;37136;43.614;3.908;2022-10-16T12:22:48;26.52;;;6.60;;
51090;SDS011;37136;43.614;3.908;2022-10-16T12:25:58;20.13;;;6.28;;
51090;SDS011;37136;43.614;3.908;2022-10-16T12:33:17;14.65;;;5.75;;
51090;SDS011;37136;43.614;3.908;2022-10-16T12:35:47;22.67;;;6.43;;
51090;SDS011;37136;43.614;3.908;2022-10-16T12:38:19;30.70;;;6.80;;
51090;SDS011;37136;43.614;3.908;2022-10-16T12:41:04;35.22;;;7.03;;
51090;SDS011;37136;43.614;3.908;2022-10-16T12:43:37;30.65;;;6.90;;
51090;SDS011;37136;43.614;3.908;2022-10-16T12:48:40;17.80;;;6.32;;
51090;SDS011;37136;43.614;3.908;2022-10-16T12:51:19;39.67;;;7.05;;
51090;SDS011;37136;43.614;3.908;2022-10-16T12:59:33;20.75;;;6.47;;
51090;SDS011;37136;43.614;3.908;2022-10-16T13:29:05;18.70;;;5.45;;
51090;SDS011;37136;43.614;3.908;2022-10-16T13:31:31;22.58;;;6.38;;
51090;SDS011;37136;43.614;3.908;2022-10-16T13:33:59;36.13;;;7.20;;
51090;SDS011;37136;43.614;3.908;2022-10-16T13:36:30;27.60;;;6.55;;
51090;SDS011;37136;43.614;3.908;2022-10-16T13:41:44;30.20;;;7.18;;
51090;SDS011;37136;43.614;3.908;2022-10-16T13:44:28;17.33;;;5.90;;
51090;SDS011;37136;43.614;3.908;2022-10-16T13:47:01;34.33;;;7.70;;
51090;SDS011;37136;43.614;3.908;2022-10-16T13:49:27;25.23;;;6.40;;
51090;SDS011;37136;43.614;3.908;2022-10-16T13:51:54;22.88;;;6.95;;
51090;SDS011;37136;43.614;3.908;2022-10-16T13:54:21;25.92;;;6.50;;
51090;SDS011;37136;43.614;3.908;2022-10-16T13:56:48;20.00;;;6.15;;
51090;SDS011;37136;43.614;3.908;2022-10-16T14:01:48;21.92;;;6.15;;
51090;SDS011;37136;43.614;3.908;2022-10-16T14:04:17;23.10;;;6.20;;
51090;SDS011;37136;43.614;3.908;2022-10-16T14:06:44;28.83;;;7.03;;
51090;SDS011;37136;43.614;3.908;2022-10-16T14:11:46;21.02;;;6.20;;
51090;SDS011;37136;43.614;3.908;2022-10-16T14:14:16;27.58;;;6.93;;
51090;SDS011;37136;43.614;3.908;2022-10-16T14:16:43;27.92;;;5.97;;
51090;SDS011;37136;43.614;3.908;2022-10-16T14:21:56;21.35;;;6.35;;
51090;SDS011;37136;43.614;3.908;2022-10-16T14:24:30;26.02;;;5.63;;
51090;SDS011;37136;43.614;3.908;2022-10-16T14:26:58;22.30;;;5.30;;
51090;SDS011;37136;43.614;3.908;2022-10-16T14:29:25;19.85;;;5.97;;
51090;SDS011;37136;43.614;3.908;2022-10-16T14:37:05;22.35;;;5.93;;
51090;SDS011;37136;43.614;3.908;2022-10-16T14:39:51;31.35;;;6.85;;
51090;SDS011;37136;43.614;3.908;2022-10-16T14:42:19;21.60;;;6.43;;
51090;SDS011;37136;43.614;3.908;2022-10-16T14:44:49;23.38;;;6.82;;
51090;SDS011;37136;43.614;3.908;2022-10-16T14:49:47;21.33;;;6.13;;
51090;SDS011;37136;43.614;3.908;2022-10-16T14:52:13;20.60;;;6.75;;
51090;SDS011;37136;43.614;3.908;2022-10-16T14:54:39;20.35;;;6.32;;
51090;SDS011;37136;43.614;3.908;2022-10-16T14:57:06;18.40;;;7.03;;
51090;SDS011;37136;43.614;3.908;2022-10-16T14:59:48;25.65;;;6.35;;
51090;SDS011;37136;43.614;3.908;2022-10-16T15:05:14;20.80;;;5.78;;
51090;SDS011;37136;43.614;3.908;2022-10-16T15:07:52;22.73;;;6.80;;
51090;SDS011;37136;43.614;3.908;2022-10-16T15:10:20;21.08;;;6.53;;
51090;SDS011;37136;43.614;3.908;2022-10-16T15:12:47;24.75;;;6.82;;
51090;SDS011;37136;43.614;3.908;2022-10-16T15:17:59;14.63;;;5.68;;
51090;SDS011;37136;43.614;3.908;2022-10-16T15:20:33;25.65;;;6.45;;
51090;SDS011;37136;43.614;3.908;2022-10-16T15:23:10;15.85;;;5.43;;
51090;SDS011;37136;43.614;3.908;2022-10-16T15:25:45;25.13;;;6.43;;
51090;SDS011;37136;43.614;3.908;2022-10-16T15:28:16;17.77;;;5.93;;
51090;SDS011;37136;43.614;3.908;2022-10-16T15:30:42;20.80;;;6.18;;
51090;SDS011;37136;43.614;3.908;2022-10-16T15:33:16;23.35;;;5.70;;
51090;SDS011;37136;43.614;3.908;2022-10-16T15:35:47;19.55;;;6.47;;
51090;SDS011;37136;43.614;3.908;2022-10-16T15:38:17;25.08;;;7.00;;
51090;SDS011;37136;43.614;3.908;2022-10-16T15:40:44;17.35;;;5.97;;
51090;SDS011;37136;43.614;3.908;2022-10-16T15:43:11;15.45;;;5.75;;
51090;SDS011;37136;43.614;3.908;2022-10-16T15:45:37;20.35;;;5.85;;
51090;SDS011;37136;43.614;3.908;2022-10-16T15:48:04;15.60;;;5.85;;
51090;SDS011;37136;43.614;3.908;2022-10-16T15:50:30;22.38;;;7.03;;
51090;SDS011;37136;43.614;3.908;2022-10-16T15:52:56;18.33;;;5.85;;
51090;SDS011;37136;43.614;3.908;2022-10-16T15:55:22;25.27;;;6.82;;
51090;SDS011;37136;43.614;3.908;2022-10-16T15:57:48;20.95;;;6.88;;
51090;SDS011;37136;43.614;3.908;2022-10-16T16:00:15;26.25;;;6.72;;
51090;SDS011;37136;43.614;3.908;2022-10-16T16:05:10;16.73;;;5.93;;
51090;SDS011;37136;43.614;3.908;2022-10-16T16:07:36;22.63;;;5.72;;
51090;SDS011;37136;43.614;3.908;2022-10-16T16:10:04;20.48;;;6.32;;
51090;SDS011;37136;43.614;3.908;2022-10-16T16:12:32;27.40;;;6.75;;
51090;SDS011;37136;43.614;3.908;2022-10-16T16:14:58;26.20;;;6.75;;
51090;SDS011;37136;43.614;3.908;2022-10-16T16:17:24;26.33;;;7.57;;
51090;SDS011;37136;43.614;3.908;2022-10-16T16:19:50;19.25;;;7.65;;
51090;SDS011;37136;43.614;3.908;2022-10-16T16:22:16;25.95;;;7.00;;
51090;SDS011;37136;43.614;3.908;2022-10-16T16:24:42;22.67;;;6.70;;
51090;SDS011;37136;43.614;3.908;2022-10-16T16:27:08;22.02;;;6.20;;
51090;SDS011;37136;43.614;3.908;2022-10-16T16:29:33;22.70;;;6.60;;
51090;SDS011;37136;43.614;3.908;2022-10-16T16:31:59;27.67;;;6.82;;
51090;SDS011;37136;43.614;3.908;2022-10-16T16:34:26;23.48;;;6.28;;
51090;SDS011;37136;43.614;3.908;2022-10-16T16:36:53;25.98;;;6.53;;
51090;SDS011;37136;43.614;3.908;2022-10-16T16:39:19;23.13;;;6.25;;
51090;SDS011;37136;43.614;3.908;2022-10-16T16:41:44;21.83;;;6.13;;
51090;SDS011;37136;43.614;3.908;2022-10-16T16:44:11;26.05;;;6.53;;
51090;SDS011;37136;43.614;3.908;2022-10-16T16:46:37;27.30;;;6.80;;
51090;SDS011;37136;43.614;3.908;2022-10-16T16:49:05;23.23;;;6.95;;
51090;SDS011;37136;43.614;3.908;2022-10-16T16:51:31;24.80;;;6.22;;
51090;SDS011;37136;43.614;3.908;2022-10-16T16:53:58;27.92;;;7.50;;
51090;SDS011;37136;43.614;3.908;2022-10-16T16:56:24;23.50;;;6.60;;
51090;SDS011;37136;43.614;3.908;2022-10-16T16:58:51;26.95;;;6.90;;
51090;SDS011;37136;43.614;3.908;2022-10-16T17:01:19;28.73;;;7.57;;
51090;SDS011;37136;43.614;3.908;2022-10-16T17:03:46;23.60;;;6.35;;
51090;SDS011;37136;43.614;3.908;2022-10-16T17:06:14;30.15;;;7.00;;
51090;SDS011;37136;43.614;3.908;2022-10-16T17:08:41;22.60;;;6.30;;
51090;SDS011;37136;43.614;3.908;2022-10-16T17:11:12;26.13;;;6.57;;
51090;SDS011;37136;43.614;3.908;2022-10-16T17:13:39;25.75;;;7.15;;
51090;SDS011;37136;43.614;3.908;2022-10-16T17:16:05;25.70;;;6.47;;
51090;SDS011;37136;43.614;3.908;2022-10-16T17:18:31;22.73;;;5.60;;
51090;SDS011;37136;43.614;3.908;2022-10-16T17:20:58;32.08;;;7.63;;
51090;SDS011;37136;43.614;3.908;2022-10-16T17:23:25;37.67;;;7.95;;
51090;SDS011;37136;43.614;3.908;2022-10-16T17:25:51;25.40;;;6.72;;
51090;SDS011;37136;43.614;3.908;2022-10-16T17:28:17;28.27;;;7.05;;
51090;SDS011;37136;43.614;3.908;2022-10-16T17:30:42;30.45;;;6.93;;
51090;SDS011;37136;43.614;3.908;2022-10-16T17:33:09;26.75;;;6.43;;
51090;SDS011;37136;43.614;3.908;2022-10-16T17:35:37;24.88;;;6.88;;
51090;SDS011;37136;43.614;3.908;2022-10-16T17:38:05;19.58;;;6.75;;
51090;SDS011;37136;43.614;3.908;2022-10-16T17:40:31;24.55;;;6.68;;
51090;SDS011;37136;43.614;3.908;2022-10-16T17:42:57;27.30;;;6.78;;
51090;SDS011;37136;43.614;3.908;2022-10-16T17:45:22;26.05;;;6.53;;
51090;SDS011;37136;43.614;3.908;2022-10-16T17:47:48;27.02;;;5.85;;
51090;SDS011;37136;43.614;3.908;2022-10-16T17:50:14;28.83;;;6.95;;
51090;SDS011;37136;43.614;3.908;2022-10-16T17:52:40;29.52;;;6.85;;
51090;SDS011;37136;43.614;3.908;2022-10-16T17:55:06;23.58;;;6.07;;
51090;SDS011;37136;43.614;3.908;2022-10-16T17:57:32;18.23;;;5.70;;
51090;SDS011;37136;43.614;3.908;2022-10-16T17:59:57;24.23;;;6.55;;
51090;SDS011;37136;43.614;3.908;2022-10-16T18:02:23;16.67;;;5.65;;
51090;SDS011;37136;43.614;3.908;2022-10-16T18:04:49;25.90;;;5.68;;
51090;SDS011;37136;43.614;3.908;2022-10-16T18:07:16;34.45;;;6.47;;